Forside
METAR-TAF:

METAR-TAF

Lufthavne :

Vientiane, Laos

Breddekreds: 17-57N, længdekreds: 102-34E, højde: 171 m

Aktuelle vejr

Denne rapport blev lavet for 52 minutter siden, kl. 10:30 UTC
Vind 14 kt fra sydvest
Temperatur 28°C
Fugtighed 70%
Tryk 1008 hPa
Sigt: 5000 m
Brudte skyer i en højde af 1000 ft
Spredte skyer i en højde af 4000 ft
dis

METAR: VLVT 171030Z 22014KT 5000 BR BKN010 SCT040 28/22 Q1008 NOSIG

Tid: 18:22 (11:22 UTC)

Vejrudsigter

Denne rapport blev lavet for 6 timer og 22 minutter siden, kl. 05:00 UTC
Foreløbig gælder fra 17 på 06 UTC til 18 på 06 UTC
Vind 4 kt fra nord
Sigt: 8000 m
Spredte skyer i en højde af 2000 ft
Nogle få skyer i en højde af 20000 ft
Midlertidig
fra 17 på 14 UTC til 17 på 20 UTC
Sigt: 3000 m
Nogle få skyer i en højde af 4000 ft
Nogle få skyer i en højde af 20000 ft
dis

TAF: VLVT 170500Z 1706/1806 36004KT 8000 SCT020 FEW200 TEMPO 1714/1720 3000 BR FEW040 FEW200

Vejrobservationer og prognoser fra mere end 4000 lufthavne (METAR og TAF).

De gule og røde prikker repræsenterer de meteorologiske stationer.

Flyt musen over at se navnet på stationen.

Så klik over at se vejr observationer og prognoser.

At skifte det kort: Klik på de grønne knapper med et sort kors for at zoome ind; på den grønne knap med en bindestreg for at zoome ud; eller på de grønne pile for tilstødende kort.


METAR-TAF: